SKX5360 SPJC-SPQT
Flight info
| Callsign | SKX5360 |
|---|---|
| Flight time | N/A |
| Altitude | 37000 |
| Route | EVSUR2 AMVEX UM414 MAJAZ MAJAZ1 |
| Aircraft | A20N/M-SDE2E3FGHIRWXY/LB1 |
Departure
| Time | 2026-05-04 20:39 |
|---|---|
| Airport | Jorge Chávez International Airport (SPJC) |
Arrival
| Time | N/A |
|---|---|
| Airport | Coronel FAP Francisco Secada Vignetta International Airport (SPQT) |
| Time | Latitude | Longitude | Altitude | Speed | Heading |
|---|---|---|---|---|---|
| 2026-05-04 20:07 | -12.02721 | -77.12034 | 126 ft | 0 kts | 244° |
| 2026-05-04 20:23 | -12.02720 | -77.12032 | 126 ft | 2 kts | 244° |
| 2026-05-04 20:24 | -12.02714 | -77.12018 | 126 ft | 2 kts | 244° |
| 2026-05-04 20:24 | -12.02707 | -77.12004 | 126 ft | 2 kts | 242° |
| 2026-05-04 20:24 | -12.02701 | -77.11991 | 126 ft | 2 kts | 272° |
| 2026-05-04 20:24 | -12.02707 | -77.11977 | 126 ft | 1 kts | 324° |
| 2026-05-04 20:25 | -12.02713 | -77.11975 | 126 ft | 1 kts | 340° |
| 2026-05-04 20:25 | -12.02717 | -77.11973 | 126 ft | 0 kts | 334° |
| 2026-05-04 20:28 | -12.02712 | -77.11975 | 126 ft | 3 kts | 334° |
| 2026-05-04 20:28 | -12.02642 | -77.12010 | 126 ft | 13 kts | 334° |
| 2026-05-04 20:29 | -12.02565 | -77.12054 | 126 ft | 10 kts | 304° |
| 2026-05-04 20:29 | -12.02579 | -77.12123 | 126 ft | 10 kts | 243° |
| 2026-05-04 20:29 | -12.02562 | -77.12186 | 126 ft | 10 kts | 331° |
| 2026-05-04 20:29 | -12.02494 | -77.12221 | 126 ft | 11 kts | 333° |
| 2026-05-04 20:30 | -12.02369 | -77.12283 | 126 ft | 22 kts | 334° |
| 2026-05-04 20:30 | -12.02243 | -77.12344 | 126 ft | 20 kts | 335° |
| 2026-05-04 20:30 | -12.02122 | -77.12387 | 126 ft | 11 kts | 10° |
| 2026-05-04 20:30 | -12.02064 | -77.12318 | 126 ft | 15 kts | 64° |
| 2026-05-04 20:31 | -12.02014 | -77.12208 | 126 ft | 18 kts | 65° |
| 2026-05-04 20:31 | -12.01953 | -77.12082 | 126 ft | 21 kts | 65° |
| 2026-05-04 20:31 | -12.01891 | -77.11949 | 126 ft | 18 kts | 64° |
| 2026-05-04 20:31 | -12.01832 | -77.11830 | 126 ft | 15 kts | 59° |
| 2026-05-04 20:32 | -12.01738 | -77.11828 | 127 ft | 16 kts | 332° |
| 2026-05-04 20:32 | -12.01621 | -77.11886 | 127 ft | 19 kts | 333° |
| 2026-05-04 20:32 | -12.01488 | -77.11950 | 127 ft | 22 kts | 329° |
| 2026-05-04 20:32 | -12.01339 | -77.12016 | 127 ft | 23 kts | 334° |
| 2026-05-04 20:33 | -12.01225 | -77.12142 | 127 ft | 24 kts | 315° |
| 2026-05-04 20:33 | -12.01127 | -77.12205 | 127 ft | 13 kts | 334° |
| 2026-05-04 20:33 | -12.01043 | -77.12245 | 127 ft | 13 kts | 334° |
| 2026-05-04 20:33 | -12.00963 | -77.12286 | 127 ft | 2 kts | 330° |
| 2026-05-04 20:34 | -12.00943 | -77.12296 | 127 ft | 3 kts | 332° |
| 2026-05-04 20:34 | -12.00916 | -77.12310 | 127 ft | 4 kts | 337° |
| 2026-05-04 20:34 | -12.00878 | -77.12315 | 127 ft | 5 kts | 13° |
| 2026-05-04 20:34 | -12.00849 | -77.12285 | 127 ft | 6 kts | 64° |
| 2026-05-04 20:35 | -12.00829 | -77.12237 | 127 ft | 7 kts | 66° |
| 2026-05-04 20:35 | -12.00827 | -77.12233 | 127 ft | 0 kts | 66° |
| 2026-05-04 20:37 | -12.00825 | -77.12228 | 127 ft | 1 kts | 66° |
| 2026-05-04 20:38 | -12.00810 | -77.12191 | 127 ft | 8 kts | 67° |
| 2026-05-04 20:38 | -12.00792 | -77.12139 | 127 ft | 4 kts | 96° |
| 2026-05-04 20:38 | -12.00823 | -77.12106 | 127 ft | 15 kts | 154° |
| 2026-05-04 20:38 | -12.01149 | -77.11946 | 127 ft | 85 kts | 154° |
| 2026-05-04 20:39 | -12.01882 | -77.11581 | 128 ft | 143 kts | 154° |
| 2026-05-04 20:39 | -12.02914 | -77.11073 | 198 ft | 181 kts | 154° |
| 2026-05-04 20:39 | -12.04058 | -77.10488 | 706 ft | 184 kts | 154° |
| 2026-05-04 20:39 | -12.05243 | -77.09893 | 1133 ft | 197 kts | 154° |
| 2026-05-04 20:40 | -12.06533 | -77.09282 | 1552 ft | 209 kts | 155° |
| 2026-05-04 20:40 | -12.07915 | -77.08614 | 1959 ft | 225 kts | 155° |
| 2026-05-04 20:40 | -12.09407 | -77.07882 | 2290 ft | 246 kts | 154° |
| 2026-05-04 20:40 | -12.11018 | -77.07089 | 2729 ft | 263 kts | 154° |
| 2026-05-04 20:41 | -12.12692 | -77.06262 | 3363 ft | 271 kts | 153° |
| 2026-05-04 20:41 | -12.14396 | -77.05421 | 4108 ft | 275 kts | 153° |
| 2026-05-04 20:41 | -12.16144 | -77.04539 | 4853 ft | 278 kts | 149° |
| 2026-05-04 20:41 | -12.17571 | -77.03210 | 5509 ft | 280 kts | 119° |
| 2026-05-04 20:42 | -12.18181 | -77.01352 | 6205 ft | 278 kts | 91° |
| 2026-05-04 20:42 | -12.17895 | -76.99416 | 6877 ft | 278 kts | 65° |
| 2026-05-04 20:42 | -12.16794 | -76.97813 | 7500 ft | 278 kts | 39° |
| 2026-05-04 20:42 | -12.15132 | -76.96883 | 8082 ft | 280 kts | 14° |
| 2026-05-04 20:43 | -12.13188 | -76.96478 | 8750 ft | 284 kts | 14° |
| 2026-05-04 20:43 | -12.11386 | -76.95598 | 9315 ft | 290 kts | 40° |
| 2026-05-04 20:43 | -12.10156 | -76.93971 | 9911 ft | 294 kts | 59° |
| 2026-05-04 20:43 | -12.09142 | -76.92128 | 10404 ft | 300 kts | 59° |
| 2026-05-04 20:44 | -12.08080 | -76.90182 | 10678 ft | 315 kts | 60° |
| 2026-05-04 20:44 | -12.07305 | -76.88895 | 10848 ft | 323 kts | 51° |
| 2026-05-04 20:44 | -12.04854 | -76.87098 | 11434 ft | 328 kts | 18° |
| 2026-05-04 20:44 | -12.02562 | -76.86774 | 12009 ft | 329 kts | 355° |
| 2026-05-04 20:45 | -12.00330 | -76.87403 | 12518 ft | 334 kts | 334° |
| 2026-05-04 20:45 | -11.98230 | -76.88535 | 13022 ft | 337 kts | 332° |
| 2026-05-04 20:45 | -11.96142 | -76.89680 | 13622 ft | 341 kts | 332° |
| 2026-05-04 20:45 | -11.94020 | -76.90831 | 14119 ft | 344 kts | 333° |
| 2026-05-04 20:46 | -11.91867 | -76.91986 | 14628 ft | 346 kts | 333° |
| 2026-05-04 20:46 | -11.89698 | -76.93139 | 15169 ft | 349 kts | 333° |
| 2026-05-04 20:46 | -11.87511 | -76.94298 | 15679 ft | 351 kts | 334° |
| 2026-05-04 20:46 | -11.85261 | -76.95336 | 16242 ft | 353 kts | 340° |
| 2026-05-04 20:47 | -11.82951 | -76.96146 | 16710 ft | 355 kts | 346° |
| 2026-05-04 20:47 | -11.80533 | -76.96796 | 17140 ft | 357 kts | 348° |
| 2026-05-04 20:47 | -11.78111 | -76.97412 | 17613 ft | 359 kts | 348° |
| 2026-05-04 20:47 | -11.75680 | -76.98024 | 18095 ft | 361 kts | 348° |
| 2026-05-04 20:48 | -11.73217 | -76.98648 | 18519 ft | 364 kts | 348° |
| 2026-05-04 20:48 | -11.70703 | -76.99287 | 18932 ft | 367 kts | 347° |
| 2026-05-04 20:48 | -11.69039 | -76.99711 | 19206 ft | 369 kts | 348° |
| 2026-05-04 20:48 | -11.65690 | -77.00565 | 19841 ft | 372 kts | 347° |
| 2026-05-04 20:49 | -11.63155 | -77.01215 | 20256 ft | 375 kts | 347° |
| 2026-05-04 20:49 | -11.60603 | -77.01868 | 20682 ft | 377 kts | 347° |
| 2026-05-04 20:49 | -11.58046 | -77.02525 | 21083 ft | 380 kts | 347° |
| 2026-05-04 20:49 | -11.55474 | -77.03184 | 21515 ft | 383 kts | 347° |
| 2026-05-04 20:50 | -11.52887 | -77.03846 | 21939 ft | 385 kts | 347° |
| 2026-05-04 20:50 | -11.50267 | -77.04517 | 22349 ft | 387 kts | 347° |
| 2026-05-04 20:50 | -11.47625 | -77.05192 | 22779 ft | 389 kts | 347° |
| 2026-05-04 20:50 | -11.44967 | -77.05868 | 23215 ft | 391 kts | 347° |
| 2026-05-04 20:51 | -11.42320 | -77.06544 | 23639 ft | 392 kts | 347° |
| 2026-05-04 20:51 | -11.39644 | -77.07228 | 24058 ft | 394 kts | 347° |
| 2026-05-04 20:51 | -11.36976 | -77.07907 | 24455 ft | 395 kts | 348° |
| 2026-05-04 20:51 | -11.34248 | -77.08260 | 24809 ft | 395 kts | 2° |
| 2026-05-04 20:52 | -11.31533 | -77.07827 | 25205 ft | 394 kts | 18° |
| 2026-05-04 20:52 | -11.29014 | -77.06715 | 25590 ft | 394 kts | 27° |
| 2026-05-04 20:52 | -11.27393 | -77.05842 | 25859 ft | 395 kts | 28° |
| 2026-05-04 20:52 | -11.24134 | -77.04060 | 26361 ft | 396 kts | 28° |
| 2026-05-04 20:53 | -11.21717 | -77.02742 | 26737 ft | 397 kts | 28° |
| 2026-05-04 20:53 | -11.19256 | -77.01408 | 27108 ft | 398 kts | 28° |
| 2026-05-04 20:53 | -11.16772 | -77.00067 | 27467 ft | 400 kts | 27° |
| 2026-05-04 20:53 | -11.14309 | -76.98738 | 27819 ft | 401 kts | 27° |
| 2026-05-04 20:54 | -11.11833 | -76.97405 | 28154 ft | 402 kts | 27° |
| 2026-05-04 20:54 | -11.09370 | -76.96080 | 28495 ft | 403 kts | 27° |
| 2026-05-04 20:54 | -11.06851 | -76.94724 | 28847 ft | 404 kts | 27° |
| 2026-05-04 20:54 | -11.04360 | -76.93385 | 29199 ft | 405 kts | 27° |
| 2026-05-04 20:55 | -11.01957 | -76.92094 | 29512 ft | 407 kts | 27° |
| 2026-05-04 20:55 | -10.99601 | -76.90829 | 29820 ft | 409 kts | 27° |
| 2026-05-04 20:55 | -10.97068 | -76.89468 | 30155 ft | 410 kts | 27° |
| 2026-05-04 20:55 | -10.94554 | -76.88120 | 30484 ft | 411 kts | 27° |
| 2026-05-04 20:56 | -10.92854 | -76.87206 | 30686 ft | 413 kts | 27° |
| 2026-05-04 20:56 | -10.89459 | -76.85384 | 31102 ft | 414 kts | 27° |
| 2026-05-04 20:56 | -10.87733 | -76.84457 | 31315 ft | 415 kts | 27° |
| 2026-05-04 20:56 | -10.84335 | -76.82635 | 31700 ft | 418 kts | 27° |
| 2026-05-04 20:57 | -10.81755 | -76.81252 | 31993 ft | 419 kts | 27° |
| 2026-05-04 20:57 | -10.79148 | -76.79855 | 32270 ft | 420 kts | 27° |
| 2026-05-04 20:57 | -10.76554 | -76.78471 | 32578 ft | 421 kts | 27° |
| 2026-05-04 20:57 | -10.73970 | -76.77093 | 32993 ft | 419 kts | 27° |
| 2026-05-04 20:58 | -10.72262 | -76.76181 | 33285 ft | 417 kts | 26° |
| 2026-05-04 20:58 | -10.68809 | -76.74339 | 33772 ft | 416 kts | 26° |
| 2026-05-04 20:58 | -10.66270 | -76.72987 | 34102 ft | 415 kts | 26° |
| 2026-05-04 20:58 | -10.63704 | -76.71619 | 34423 ft | 414 kts | 26° |
| 2026-05-04 20:59 | -10.61111 | -76.70239 | 34715 ft | 414 kts | 26° |
| 2026-05-04 20:59 | -10.58573 | -76.68887 | 35006 ft | 413 kts | 26° |
| 2026-05-04 20:59 | -10.56023 | -76.67528 | 35312 ft | 412 kts | 26° |
| 2026-05-04 20:59 | -10.53492 | -76.66179 | 35613 ft | 411 kts | 26° |
| 2026-05-04 21:00 | -10.50956 | -76.64828 | 35879 ft | 410 kts | 26° |
| 2026-05-04 21:00 | -10.48432 | -76.63485 | 36141 ft | 409 kts | 26° |
| 2026-05-04 21:00 | -10.45893 | -76.62132 | 36375 ft | 409 kts | 26° |
| 2026-05-04 21:00 | -10.43358 | -76.60783 | 36593 ft | 409 kts | 26° |
| 2026-05-04 21:01 | -10.40842 | -76.59444 | 36793 ft | 409 kts | 26° |
| 2026-05-04 21:01 | -10.38350 | -76.58117 | 36989 ft | 408 kts | 26° |
| 2026-05-04 21:01 | -10.35812 | -76.56766 | 37186 ft | 408 kts | 26° |
| 2026-05-04 21:01 | -10.33320 | -76.55440 | 37356 ft | 408 kts | 26° |
| 2026-05-04 21:02 | -10.30802 | -76.54102 | 37514 ft | 408 kts | 26° |
| 2026-05-04 21:02 | -10.28273 | -76.52756 | 37659 ft | 409 kts | 26° |
| 2026-05-04 21:02 | -10.25741 | -76.51411 | 37796 ft | 409 kts | 26° |
| 2026-05-04 21:02 | -10.23220 | -76.50071 | 37806 ft | 412 kts | 26° |
| 2026-05-04 21:03 | -10.18078 | -76.47338 | 37814 ft | 417 kts | 27° |
| 2026-05-04 21:03 | -10.12904 | -76.44589 | 37806 ft | 423 kts | 26° |
| 2026-05-04 21:04 | -10.07630 | -76.41791 | 37786 ft | 428 kts | 27° |
| 2026-05-04 21:04 | -10.02345 | -76.38985 | 37724 ft | 432 kts | 27° |
| 2026-05-04 21:05 | -9.97046 | -76.36174 | 37686 ft | 435 kts | 27° |
| 2026-05-04 21:05 | -9.92565 | -76.33797 | 37616 ft | 436 kts | 26° |
| 2026-05-04 21:06 | -9.86296 | -76.30473 | 37508 ft | 436 kts | 27° |
| 2026-05-04 21:06 | -9.80945 | -76.27636 | 37433 ft | 436 kts | 27° |
| 2026-05-04 21:07 | -9.76472 | -76.25264 | 37407 ft | 437 kts | 27° |
| 2026-05-04 21:07 | -9.70179 | -76.21931 | 37445 ft | 435 kts | 27° |
| 2026-05-04 21:08 | -9.65664 | -76.19541 | 37463 ft | 436 kts | 27° |
| 2026-05-04 21:08 | -9.59401 | -76.16224 | 37470 ft | 436 kts | 27° |
| 2026-05-04 21:09 | -9.54017 | -76.13375 | 37425 ft | 437 kts | 27° |
| 2026-05-04 21:09 | -9.48583 | -76.10500 | 37341 ft | 437 kts | 27° |
| 2026-05-04 21:10 | -9.43198 | -76.07651 | 37288 ft | 437 kts | 27° |
| 2026-05-04 21:10 | -9.37799 | -76.04796 | 37194 ft | 437 kts | 27° |
| 2026-05-04 21:11 | -9.32383 | -76.01934 | 37105 ft | 438 kts | 27° |
| 2026-05-04 21:11 | -9.26908 | -75.99095 | 37079 ft | 438 kts | 26° |
| 2026-05-04 21:12 | -9.21427 | -75.96401 | 37068 ft | 439 kts | 26° |
| 2026-05-04 21:12 | -9.15885 | -75.93672 | 37085 ft | 439 kts | 26° |
| 2026-05-04 21:13 | -9.11311 | -75.91415 | 37086 ft | 440 kts | 26° |
| 2026-05-04 21:13 | -9.04890 | -75.88245 | 37083 ft | 439 kts | 26° |
| 2026-05-04 21:14 | -8.99385 | -75.85525 | 37062 ft | 439 kts | 26° |
| 2026-05-04 21:14 | -8.93879 | -75.82804 | 37057 ft | 440 kts | 26° |
| 2026-05-04 21:15 | -8.88365 | -75.80080 | 37049 ft | 439 kts | 26° |
| 2026-05-04 21:15 | -8.83780 | -75.77816 | 37038 ft | 440 kts | 26° |
| 2026-05-04 21:16 | -8.77319 | -75.74626 | 37037 ft | 440 kts | 26° |
| 2026-05-04 21:16 | -8.71805 | -75.71906 | 37040 ft | 441 kts | 26° |
| 2026-05-04 21:17 | -8.67212 | -75.69641 | 37033 ft | 441 kts | 26° |
| 2026-05-04 21:17 | -8.60784 | -75.66471 | 37025 ft | 440 kts | 26° |
| 2026-05-04 21:18 | -8.55244 | -75.63740 | 37026 ft | 441 kts | 26° |
| 2026-05-04 21:18 | -8.49728 | -75.61022 | 37022 ft | 441 kts | 26° |
| 2026-05-04 21:19 | -8.45123 | -75.58753 | 37012 ft | 441 kts | 26° |
| 2026-05-04 21:19 | -8.38650 | -75.55566 | 37012 ft | 441 kts | 26° |
| 2026-05-04 21:20 | -8.34080 | -75.53316 | 37000 ft | 441 kts | 26° |
| 2026-05-04 21:20 | -8.28555 | -75.50596 | 36993 ft | 440 kts | 26° |
| 2026-05-04 21:21 | -8.23029 | -75.47876 | 36985 ft | 441 kts | 26° |
| 2026-05-04 21:21 | -8.17481 | -75.45148 | 36988 ft | 440 kts | 26° |
| 2026-05-04 21:22 | -8.11999 | -75.42451 | 36982 ft | 440 kts | 26° |
| 2026-05-04 21:22 | -8.05548 | -75.39280 | 36963 ft | 441 kts | 26° |
| 2026-05-04 21:23 | -8.00015 | -75.36560 | 36953 ft | 440 kts | 26° |
| 2026-05-04 21:23 | -7.94494 | -75.33848 | 36950 ft | 440 kts | 26° |
| 2026-05-04 21:24 | -7.89897 | -75.31589 | 36948 ft | 441 kts | 26° |
| 2026-05-04 21:24 | -7.84373 | -75.28877 | 36940 ft | 440 kts | 26° |
| 2026-05-04 21:25 | -7.78866 | -75.26172 | 36933 ft | 441 kts | 26° |
| 2026-05-04 21:25 | -7.72414 | -75.23005 | 36924 ft | 441 kts | 26° |
| 2026-05-04 21:26 | -7.66852 | -75.20279 | 36917 ft | 441 kts | 26° |
| 2026-05-04 21:26 | -7.62234 | -75.18014 | 36920 ft | 443 kts | 26° |
| 2026-05-04 21:27 | -7.56688 | -75.15296 | 36915 ft | 442 kts | 26° |
| 2026-05-04 21:27 | -7.50246 | -75.12137 | 36916 ft | 442 kts | 26° |
| 2026-05-04 21:28 | -7.45626 | -75.09872 | 36916 ft | 443 kts | 27° |
| 2026-05-04 21:28 | -7.40074 | -75.07155 | 36916 ft | 443 kts | 26° |
| 2026-05-04 21:29 | -7.34488 | -75.04422 | 36916 ft | 444 kts | 26° |
| 2026-05-04 21:29 | -7.27974 | -75.01234 | 36919 ft | 444 kts | 26° |
| 2026-05-04 21:30 | -7.23346 | -74.98968 | 36918 ft | 445 kts | 26° |
| 2026-05-04 21:30 | -7.16796 | -74.95766 | 36919 ft | 445 kts | 26° |
| 2026-05-04 21:31 | -7.09347 | -74.92123 | 36924 ft | 446 kts | 27° |
| 2026-05-04 21:32 | -7.03768 | -74.89394 | 36920 ft | 446 kts | 27° |
| 2026-05-04 21:32 | -6.98170 | -74.86655 | 36920 ft | 447 kts | 26° |
| 2026-05-04 21:33 | -6.92574 | -74.83922 | 36920 ft | 447 kts | 27° |
| 2026-05-04 21:33 | -6.86952 | -74.81176 | 36920 ft | 446 kts | 27° |
| 2026-05-04 21:34 | -6.81363 | -74.78445 | 36921 ft | 446 kts | 27° |
| 2026-05-04 21:34 | -6.75783 | -74.75721 | 36919 ft | 445 kts | 27° |
| 2026-05-04 21:35 | -6.70212 | -74.73000 | 36921 ft | 445 kts | 27° |
| 2026-05-04 21:35 | -6.64630 | -74.70274 | 36920 ft | 445 kts | 27° |
| 2026-05-04 21:36 | -6.59029 | -74.67542 | 36927 ft | 445 kts | 27° |
| 2026-05-04 21:36 | -6.53445 | -74.64818 | 36933 ft | 445 kts | 27° |
| 2026-05-04 21:37 | -6.47846 | -74.62086 | 36932 ft | 445 kts | 27° |
| 2026-05-04 21:37 | -6.42265 | -74.59367 | 36928 ft | 444 kts | 27° |
| 2026-05-04 21:38 | -6.36686 | -74.56645 | 36927 ft | 444 kts | 27° |
| 2026-05-04 21:38 | -6.31132 | -74.53938 | 36926 ft | 445 kts | 27° |
| 2026-05-04 21:39 | -6.25528 | -74.51208 | 36924 ft | 445 kts | 27° |
| 2026-05-04 21:39 | -6.19023 | -74.48039 | 36919 ft | 445 kts | 27° |
| 2026-05-04 21:40 | -6.14388 | -74.45781 | 36918 ft | 445 kts | 27° |
| 2026-05-04 21:40 | -6.08806 | -74.43065 | 36913 ft | 444 kts | 27° |
| 2026-05-04 21:41 | -6.03230 | -74.40349 | 36912 ft | 444 kts | 27° |
| 2026-05-04 21:41 | -5.97637 | -74.37627 | 36911 ft | 445 kts | 27° |
| 2026-05-04 21:42 | -5.91145 | -74.34468 | 36912 ft | 445 kts | 27° |
| 2026-05-04 21:42 | -5.86493 | -74.32204 | 36910 ft | 445 kts | 27° |
| 2026-05-04 21:43 | -5.80953 | -74.29510 | 36912 ft | 445 kts | 27° |
| 2026-05-04 21:43 | -5.74429 | -74.26338 | 36915 ft | 445 kts | 27° |
| 2026-05-04 21:44 | -5.68863 | -74.23631 | 36916 ft | 445 kts | 27° |
| 2026-05-04 21:44 | -5.64202 | -74.21367 | 36917 ft | 444 kts | 27° |
| 2026-05-04 21:45 | -5.58664 | -74.18675 | 36918 ft | 445 kts | 27° |
| 2026-05-04 21:45 | -5.53072 | -74.15958 | 36918 ft | 445 kts | 27° |
| 2026-05-04 21:46 | -5.46561 | -74.12795 | 36920 ft | 445 kts | 27° |
| 2026-05-04 21:46 | -5.41942 | -74.10552 | 36921 ft | 445 kts | 28° |
| 2026-05-04 21:47 | -5.36346 | -74.07835 | 36923 ft | 445 kts | 28° |
| 2026-05-04 21:47 | -5.30725 | -74.05107 | 36923 ft | 446 kts | 28° |
| 2026-05-04 21:48 | -5.25159 | -74.02405 | 36925 ft | 446 kts | 28° |
| 2026-05-04 21:48 | -5.19590 | -73.99701 | 36926 ft | 445 kts | 27° |
| 2026-05-04 21:49 | -5.13986 | -73.96983 | 36925 ft | 445 kts | 27° |
| 2026-05-04 21:49 | -5.08397 | -73.94273 | 36932 ft | 445 kts | 28° |
| 2026-05-04 21:50 | -5.02799 | -73.91558 | 36929 ft | 446 kts | 28° |
| 2026-05-04 21:50 | -4.97223 | -73.88855 | 36930 ft | 446 kts | 28° |
| 2026-05-04 21:51 | -4.91604 | -73.86128 | 36932 ft | 446 kts | 28° |
| 2026-05-04 21:51 | -4.86028 | -73.83425 | 36932 ft | 445 kts | 28° |
| 2026-05-04 21:52 | -4.80461 | -73.80727 | 36933 ft | 446 kts | 27° |
| 2026-05-04 21:52 | -4.74865 | -73.78015 | 36933 ft | 445 kts | 27° |
| 2026-05-04 21:53 | -4.69260 | -73.75299 | 36932 ft | 446 kts | 28° |
| 2026-05-04 21:53 | -4.63682 | -73.72595 | 36933 ft | 447 kts | 28° |
| 2026-05-04 21:54 | -4.58096 | -73.69888 | 36932 ft | 446 kts | 27° |
| 2026-05-04 21:54 | -4.52379 | -73.67455 | 36933 ft | 447 kts | 20° |
| 2026-05-04 21:55 | -4.46426 | -73.65533 | 36933 ft | 448 kts | 20° |
| 2026-05-04 21:55 | -4.40450 | -73.63627 | 36932 ft | 448 kts | 20° |
| 2026-05-04 21:56 | -4.34502 | -73.61719 | 36932 ft | 448 kts | 20° |
| 2026-05-04 21:56 | -4.28582 | -73.59815 | 36931 ft | 448 kts | 20° |
| 2026-05-04 21:57 | -4.22616 | -73.57895 | 36935 ft | 448 kts | 20° |
| 2026-05-04 21:57 | -4.16704 | -73.55996 | 36933 ft | 447 kts | 20° |
| 2026-05-04 21:58 | -4.10725 | -73.54076 | 36932 ft | 447 kts | 20° |
| 2026-05-04 21:58 | -4.04821 | -73.52178 | 36936 ft | 448 kts | 20° |
| 2026-05-04 21:59 | -3.98879 | -73.50266 | 36933 ft | 447 kts | 20° |
| 2026-05-04 21:59 | -3.92943 | -73.48357 | 36928 ft | 447 kts | 20° |
| 2026-05-04 22:00 | -3.87174 | -73.46082 | 36911 ft | 443 kts | 35° |
| 2026-05-04 22:00 | -3.84838 | -73.44076 | 36918 ft | 440 kts | 50° |
| 2026-05-04 22:00 | -3.82757 | -73.40623 | 36919 ft | 439 kts | 70° |
| 2026-05-04 22:01 | -3.81322 | -73.35774 | 36915 ft | 440 kts | 66° |
| 2026-05-04 22:01 | -3.78300 | -73.30463 | 36922 ft | 440 kts | 58° |
| 2026-05-04 22:02 | -3.75021 | -73.25330 | 36918 ft | 439 kts | 58° |
| 2026-05-04 22:02 | -3.71740 | -73.20189 | 36914 ft | 439 kts | 58° |
| 2026-05-04 22:03 | -3.68453 | -73.15037 | 36915 ft | 439 kts | 58° |
| 2026-05-04 22:03 | -3.65171 | -73.09913 | 36912 ft | 438 kts | 58° |
| 2026-05-04 22:04 | -3.61862 | -73.04762 | 36912 ft | 438 kts | 58° |
| 2026-05-04 22:04 | -3.58562 | -72.99644 | 36912 ft | 439 kts | 57° |
| 2026-05-04 22:05 | -3.55260 | -72.94532 | 36909 ft | 439 kts | 57° |
| 2026-05-04 22:05 | -3.51937 | -72.89387 | 36914 ft | 439 kts | 57° |
| 2026-05-04 22:06 | -3.48617 | -72.84257 | 36909 ft | 439 kts | 57° |
| 2026-05-04 22:06 | -3.45302 | -72.79133 | 36912 ft | 440 kts | 57° |
| 2026-05-04 22:07 | -3.41986 | -72.74020 | 36910 ft | 440 kts | 57° |
| 2026-05-04 22:07 | -3.38651 | -72.68892 | 36912 ft | 440 kts | 57° |
| 2026-05-04 22:08 | -3.35313 | -72.63769 | 36912 ft | 441 kts | 57° |
| 2026-05-04 22:08 | -3.31959 | -72.58630 | 36911 ft | 442 kts | 57° |
| 2026-05-04 22:09 | -3.28588 | -72.53481 | 36917 ft | 442 kts | 57° |
| 2026-05-04 22:09 | -3.25222 | -72.48354 | 36909 ft | 442 kts | 57° |
| 2026-05-04 22:10 | -3.21837 | -72.43201 | 36911 ft | 442 kts | 57° |
| 2026-05-04 22:10 | -3.18475 | -72.38077 | 36911 ft | 442 kts | 57° |
| 2026-05-04 22:11 | -3.15095 | -72.32931 | 36918 ft | 443 kts | 57° |
| 2026-05-04 22:11 | -3.11707 | -72.27786 | 36910 ft | 443 kts | 57° |
| 2026-05-04 22:12 | -3.08304 | -72.22631 | 36913 ft | 443 kts | 57° |
| 2026-05-04 22:12 | -3.04339 | -72.16657 | 36916 ft | 444 kts | 57° |
| 2026-05-04 22:13 | -3.01495 | -72.12376 | 36915 ft | 443 kts | 57° |
| 2026-05-04 22:13 | -2.98075 | -72.07225 | 36916 ft | 444 kts | 57° |
| 2026-05-04 22:14 | -2.94667 | -72.02103 | 36913 ft | 443 kts | 57° |
| 2026-05-04 22:14 | -2.91243 | -71.96979 | 36910 ft | 444 kts | 57° |
| 2026-05-04 22:15 | -2.87803 | -71.91849 | 36907 ft | 444 kts | 57° |
| 2026-05-04 22:15 | -2.84358 | -71.86722 | 36909 ft | 444 kts | 57° |
| 2026-05-04 22:16 | -2.80941 | -71.81636 | 36905 ft | 444 kts | 57° |
| 2026-05-04 22:16 | -2.77484 | -71.76488 | 36894 ft | 444 kts | 57° |
| 2026-05-04 22:17 | -2.74048 | -71.71370 | 36892 ft | 443 kts | 57° |
| 2026-05-04 22:17 | -2.70592 | -71.66235 | 36896 ft | 444 kts | 57° |
| 2026-05-04 22:18 | -2.67145 | -71.61138 | 36894 ft | 444 kts | 56° |
| 2026-05-04 22:18 | -2.63681 | -71.56025 | 36894 ft | 445 kts | 56° |
| 2026-05-04 22:19 | -2.60210 | -71.50906 | 36895 ft | 445 kts | 56° |
| 2026-05-04 22:19 | -2.56756 | -71.45815 | 36896 ft | 445 kts | 56° |
| 2026-05-04 22:20 | -2.53261 | -71.40672 | 36898 ft | 445 kts | 56° |
| 2026-05-04 22:20 | -2.49771 | -71.35539 | 36902 ft | 445 kts | 56° |
| 2026-05-04 22:21 | -2.46294 | -71.30440 | 36899 ft | 446 kts | 56° |
| 2026-05-04 22:21 | -2.42798 | -71.25314 | 36875 ft | 446 kts | 56° |
| 2026-05-04 22:22 | -2.39324 | -71.20185 | 36853 ft | 447 kts | 56° |
| 2026-05-04 22:22 | -2.35886 | -71.15009 | 36870 ft | 447 kts | 56° |
| 2026-05-04 22:23 | -2.32469 | -71.09807 | 36895 ft | 447 kts | 56° |
| 2026-05-04 22:23 | -2.29060 | -71.04619 | 36891 ft | 448 kts | 56° |
| 2026-05-04 22:24 | -2.25631 | -70.99408 | 36890 ft | 448 kts | 56° |
| 2026-05-04 22:24 | -2.22204 | -70.94208 | 36886 ft | 449 kts | 56° |